Time;durP1;ratioP1;P1;durP2;ratioP2;P2;SDS_P1;SDS_P2;PMS_P1;PMS_P2;Temp;Humidity;BMP_temperature;BMP_pressure;BME280_temperature;BME280_humidity;BME280_pressure;Samples;Min_cycle;Max_cycle;Signal;HPM_P1;HPM_P2
2021/12/24 00:01:01;;;;;;;32.05;19.92;;;;;;;8.14;93.98;100020.44;6161686;23;20336;-80
2021/12/24 00:03:28;;;;;;;31.67;19.17;;;;;;;8.09;94.50;100009.66;6161434;23;20021;-81
2021/12/24 00:05:55;;;;;;;34.17;20.60;;;;;;;8.10;94.60;100008.69;6162863;23;20082;-81
2021/12/24 00:08:22;;;;;;;31.20;19.48;;;;;;;8.04;94.78;100009.31;6161369;23;20410;-81
2021/12/24 00:10:58;;;;;;;35.22;20.73;;;;;;;8.08;94.69;100003.63;6162489;23;20068;-81
2021/12/24 00:13:25;;;;;;;31.27;20.17;;;;;;;8.09;94.37;100013.09;6163377;23;20088;-81
2021/12/24 00:15:58;;;;;;;31.95;21.23;;;;;;;8.01;94.53;100002.63;6165894;22;20013;-82
2021/12/24 00:18:36;;;;;;;31.98;20.67;;;;;;;7.93;94.08;99973.94;6224972;23;20092;-83
2021/12/24 00:35:32;;;;;;;28.13;19.45;;;;;;;8.02;94.13;99977.41;6238412;23;20055;-81
2021/12/24 00:38:03;;;;;;;29.80;18.92;;;;;;;8.06;93.77;99978.69;6233454;23;20074;-83
2021/12/24 00:40:31;;;;;;;26.83;18.90;;;;;;;8.05;93.83;99972.66;6231169;23;20052;-82
2021/12/24 00:42:59;;;;;;;29.30;18.45;;;;;;;8.06;93.67;99982.13;6231670;23;20021;-81
2021/12/24 00:45:29;;;;;;;27.77;18.92;;;;;;;8.05;93.76;99983.09;6232336;23;20017;-81
2021/12/24 00:47:57;;;;;;;27.38;19.38;;;;;;;7.99;93.83;99983.75;6232700;23;20024;-83
2021/12/24 00:50:26;;;;;;;25.58;16.95;;;;;;;8.04;93.64;99973.63;6231436;23;20032;-83
2021/12/24 00:53:01;;;;;;;27.45;17.92;;;;;;;8.10;93.28;99985.22;6231669;23;20008;-83
2021/12/24 00:55:29;;;;;;;27.23;18.90;;;;;;;8.03;93.41;99985.06;6233320;23;20016;-83
2021/12/24 00:57:58;;;;;;;25.33;17.45;;;;;;;7.98;93.61;99969.06;6235248;23;20028;-82
2021/12/24 01:00:28;;;;;;;26.60;17.48;;;;;;;8.00;93.77;99980.16;6231645;23;20017;-83
2021/12/24 01:02:57;;;;;;;27.58;17.98;;;;;;;7.97;93.69;99988.28;6230604;23;20071;-83
2021/12/24 01:05:28;;;;;;;27.38;18.15;;;;;;;7.97;93.72;99975.25;6230902;23;20020;-82
2021/12/24 01:07:57;;;;;;;26.13;17.50;;;;;;;7.96;93.93;99989.25;6230761;23;20020;-82
2021/12/24 01:10:27;;;;;;;27.15;18.63;;;;;;;7.95;94.01;99987.63;6231349;23;20027;-82
2021/12/24 01:12:54;;;;;;;24.65;17.58;;;;;;;7.91;94.24;99988.91;6231244;23;20017;-82
2021/12/24 01:15:21;;;;;;;28.15;18.73;;;;;;;7.90;94.47;99990.69;6231394;23;20064;-82
2021/12/24 01:17:55;;;;;;;27.48;18.90;;;;;;;7.88;94.59;99982.22;6231426;23;20013;-82
2021/12/24 01:20:28;;;;;;;28.83;19.05;;;;;;;7.86;94.63;99989.34;6227537;23;20361;-82
2021/12/24 01:23:28;;;;;;;29.52;19.15;;;;;;;7.82;94.73;99982.00;6229076;23;20025;-83
2021/12/24 01:25:58;;;;;;;28.35;19.25;;;;;;;7.91;94.74;99994.13;6230295;23;20047;-82
2021/12/24 01:28:44;;;;;;;29.95;19.27;;;;;;;7.91;94.22;99984.50;6230983;23;20124;-83
2021/12/24 01:39:39;;;;;;;25.13;18.15;;;;;;;7.91;94.55;99970.66;6233859;23;20084;-82
2021/12/24 01:45:15;;;;;;;24.63;17.60;;;;;;;7.97;94.14;99964.84;6109602;23;20487;-83
2021/12/24 01:47:42;;;;;;;24.58;17.27;;;;;;;7.95;94.38;99966.78;6107660;23;20029;-84
2021/12/24 01:50:09;;;;;;;22.58;16.73;;;;;;;7.98;94.29;99963.88;6168856;23;20200;-84
2021/12/24 01:52:38;;;;;;;25.13;16.00;;;;;;;8.01;94.24;99953.13;6231303;23;20017;-84
2021/12/24 01:55:10;;;;;;;22.83;16.65;;;;;;;8.08;94.23;99963.72;6231849;23;20028;-83
2021/12/24 01:57:37;;;;;;;20.30;15.55;;;;;;;8.11;93.69;99966.84;6232227;23;20028;-82
2021/12/24 02:00:07;;;;;;;26.70;15.68;;;;;;;8.18;93.69;99967.03;6231257;23;20100;-81
2021/12/24 02:02:33;;;;;;;21.65;14.38;;;;;;;8.20;93.49;99973.72;6231442;23;20023;-82
2021/12/24 02:05:00;;;;;;;21.52;15.55;;;;;;;8.18;93.47;99961.81;6230076;23;20024;-82
2021/12/24 02:07:27;;;;;;;23.75;15.48;;;;;;;8.16;93.52;99969.78;6230810;23;20047;-82
2021/12/24 02:09:55;;;;;;;23.77;14.68;;;;;;;8.20;93.33;99965.91;6232044;23;20080;-81
2021/12/24 02:12:25;;;;;;;20.20;15.35;;;;;;;8.07;93.31;99949.88;6231263;23;20031;-82
2021/12/24 02:14:56;;;;;;;22.27;15.60;;;;;;;8.13;93.17;99959.69;6233045;23;20030;-82
2021/12/24 02:17:48;;;;;;;21.75;15.23;;;;;;;8.24;93.00;99969.84;6232789;23;20424;-82
2021/12/24 02:28:50;;;;;;;20.48;14.05;;;;;;;8.26;92.71;99960.06;6192744;23;20134;-83
2021/12/24 02:31:20;;;;;;;24.58;15.52;;;;;;;8.28;92.91;99950.31;6231388;23;20075;-82
2021/12/24 02:33:47;;;;;;;20.60;15.48;;;;;;;8.30;92.64;99950.97;6231486;23;20020;-82
2021/12/24 02:36:16;;;;;;;22.48;16.10;;;;;;;8.32;92.68;99949.03;6231537;23;20040;-82
2021/12/24 02:38:43;;;;;;;23.65;15.30;;;;;;;8.29;92.83;99932.88;6228863;23;20020;-82
2021/12/24 02:41:13;;;;;;;23.77;16.55;;;;;;;8.21;92.83;99933.66;6224168;23;20080;-82
2021/12/24 02:43:41;;;;;;;27.05;15.98;;;;;;;8.28;92.70;99946.88;6222864;23;20025;-81
2021/12/24 02:46:11;;;;;;;25.90;16.38;;;;;;;8.18;92.61;99926.16;6223613;23;20094;-82
2021/12/24 02:49:02;;;;;;;25.35;16.55;;;;;;;8.22;92.84;99937.91;6223706;23;20257;-82
2021/12/24 02:54:18;;;;;;;24.13;16.83;;;;;;;8.16;93.05;99933.31;6223152;23;20027;-81
2021/12/24 02:56:50;;;;;;;24.38;16.45;;;;;;;8.26;92.81;99943.63;6222745;23;20042;-82
2021/12/24 02:59:26;;;;;;;27.92;17.55;;;;;;;8.24;92.75;99933.34;6223120;23;20028;-82
2021/12/24 03:01:54;;;;;;;28.73;17.67;;;;;;;8.25;92.84;99926.34;6223889;23;20020;-81
2021/12/24 03:04:21;;;;;;;25.63;17.02;;;;;;;8.20;93.30;99932.03;6224455;23;20024;-83
2021/12/24 03:06:51;;;;;;;28.45;17.88;;;;;;;8.19;93.09;99927.78;6222646;23;20302;-83
2021/12/24 03:09:25;;;;;;;26.70;17.02;;;;;;;8.09;92.79;99902.81;6221099;23;20020;-84
2021/12/24 03:11:53;;;;;;;26.67;17.30;;;;;;;8.11;93.03;99904.28;6220233;23;20031;-79
2021/12/24 03:14:20;;;;;;;23.58;17.17;;;;;;;8.07;93.23;99908.19;6223024;23;20099;-80
2021/12/24 03:16:53;;;;;;;26.55;16.67;;;;;;;8.10;93.27;99913.09;6219721;23;20468;-81
2021/12/24 03:19:24;;;;;;;26.33;15.98;;;;;;;8.19;92.90;99917.34;6222887;23;20056;-80
2021/12/24 03:21:59;;;;;;;25.00;17.15;;;;;;;8.26;93.59;99927.97;6227824;23;20032;-81
2021/12/24 03:24:34;;;;;;;24.75;16.55;;;;;;;8.22;93.61;99935.28;6224337;23;20024;-80
2021/12/24 03:27:09;;;;;;;28.05;16.80;;;;;;;8.16;93.79;99932.50;6218128;23;20017;-80
2021/12/24 03:29:41;;;;;;;29.70;17.17;;;;;;;8.04;94.26;99925.91;6226966;23;20052;-80
2021/12/24 03:32:14;;;;;;;26.70;17.20;;;;;;;8.03;94.49;99922.53;6228208;23;20026;-80
2021/12/24 03:34:41;;;;;;;;;;;;;;;8.06;94.85;99937.81;6223634;23;20044;-79
2021/12/24 03:37:28;;;;;;;30.75;16.95;;;;;;;7.93;95.04;99916.63;6222123;23;20406;-80
2021/12/24 03:39:55;;;;;;;31.10;18.67;;;;;;;8.01;95.39;99931.47;6228814;23;20021;-81
2021/12/24 03:42:22;;;;;;;25.75;17.95;;;;;;;8.06;95.31;99937.81;6231548;23;20017;-82
2021/12/24 03:44:57;;;;;;;31.85;19.40;;;;;;;8.09;95.37;99932.31;6230056;23;20036;-81
2021/12/24 03:47:25;;;;;;;26.70;17.15;;;;;;;7.97;95.51;99917.94;6228288;23;20020;-81
2021/12/24 03:50:02;;;;;;;27.08;17.63;;;;;;;7.95;95.60;99904.25;6229768;23;20034;-81
2021/12/24 03:52:50;;;;;;;27.67;17.95;;;;;;;7.94;95.46;99897.41;6229040;23;20021;-84
2021/12/24 03:55:22;;;;;;;24.92;17.20;;;;;;;7.89;95.48;99899.66;6230300;23;20049;-85
2021/12/24 03:57:51;;;;;;;25.47;17.30;;;;;;;8.10;95.56;99918.31;6229996;23;20051;-83
2021/12/24 04:00:23;;;;;;;28.17;17.17;;;;;;;8.03;95.33;99913.91;6229208;23;20332;-83
2021/12/24 04:02:50;;;;;;;29.52;17.80;;;;;;;7.93;95.27;99894.00;6229122;23;20043;-84
2021/12/24 04:05:18;;;;;;;27.05;18.25;;;;;;;8.07;95.23;99902.97;6230297;23;20043;-82
2021/12/24 04:07:46;;;;;;;29.60;17.95;;;;;;;8.00;95.13;99907.22;6228548;23;20016;-83
2021/12/24 04:10:22;;;;;;;28.70;17.92;;;;;;;8.03;95.35;99900.88;6229977;23;20437;-83
2021/12/24 04:12:49;;;;;;;29.23;19.05;;;;;;;8.01;95.23;99911.44;6230748;23;20072;-84
2021/12/24 04:15:16;;;;;;;29.15;17.88;;;;;;;7.93;95.20;99904.41;6232294;23;20013;-84
2021/12/24 04:17:44;;;;;;;26.15;18.10;;;;;;;8.04;94.84;99905.91;6231987;23;20038;-83
2021/12/24 04:25:41;;;;;;;30.00;18.00;;;;;;;8.02;94.34;99918.28;6226719;23;20257;-82
2021/12/24 04:28:10;;;;;;;26.65;18.15;;;;;;;8.06;94.35;99927.41;6230368;23;20020;-84
2021/12/24 04:30:44;;;;;;;27.05;17.60;;;;;;;8.15;93.80;99921.25;6231127;23;20409;-84
2021/12/24 04:33:16;;;;;;;28.25;18.50;;;;;;;8.15;93.51;99930.88;6232576;23;20024;-84
2021/12/24 04:35:47;;;;;;;26.55;17.80;;;;;;;8.20;93.19;99931.22;6235259;23;20025;-82
2021/12/24 04:38:33;;;;;;;27.70;17.83;;;;;;;8.17;93.30;99924.53;6224122;23;20395;-81
2021/12/24 04:52:13;;;;;;;25.75;17.60;;;;;;;8.28;92.16;99950.31;6231031;23;20036;-83
2021/12/24 05:03:01;;;;;;;28.30;17.10;;;;;;;8.37;91.59;99939.94;6230715;23;20071;-84
2021/12/24 05:05:39;;;;;;;26.02;17.45;;;;;;;8.38;91.32;99931.97;6230732;23;20028;-83
2021/12/24 05:08:20;;;;;;;29.75;17.92;;;;;;;8.32;90.98;99917.78;6231764;23;20020;-84
2021/12/24 05:10:52;;;;;;;30.52;17.95;;;;;;;8.39;91.21;99932.78;6232533;23;20025;-83
2021/12/24 05:13:24;;;;;;;26.88;18.02;;;;;;;8.32;90.99;99912.56;6232476;23;20035;-85
2021/12/24 05:16:04;;;;;;;30.83;18.73;;;;;;;8.48;91.12;99948.28;6232790;23;20504;-84
2021/12/24 05:18:47;;;;;;;25.15;17.35;;;;;;;8.54;90.59;99941.59;6233309;23;20103;-83
2021/12/24 05:24:05;;;;;;;27.80;17.75;;;;;;;8.38;90.73;99921.53;6238376;23;20031;-85
2021/12/24 05:26:36;;;;;;;26.52;17.77;;;;;;;8.55;90.53;99938.81;6201744;23;20381;-83
2021/12/24 05:29:05;;;;;;;26.80;16.83;;;;;;;8.40;90.78;99916.16;6232299;23;20071;-83
2021/12/24 05:31:35;;;;;;;28.70;18.08;;;;;;;8.42;90.61;99927.25;6230513;23;20032;-82
2021/12/24 05:34:03;;;;;;;27.85;17.98;;;;;;;8.43;90.85;99928.88;6231347;23;20020;-83
2021/12/24 05:36:30;;;;;;;26.67;17.35;;;;;;;8.38;90.96;99925.94;6231882;23;20020;-83
2021/12/24 05:38:58;;;;;;;32.22;19.00;;;;;;;8.47;90.59;99936.22;6227499;23;20012;-84
2021/12/24 05:41:25;;;;;;;29.15;18.92;;;;;;;8.55;90.97;99948.44;6225636;23;20031;-85
2021/12/24 05:43:58;;;;;;;29.83;19.25;;;;;;;8.59;90.83;99950.56;6229561;23;20080;-84
2021/12/24 05:46:29;;;;;;;;;;;;;;;8.61;90.65;99953.03;6224843;23;20020;-82
2021/12/24 05:52:10;;;;;;;31.85;18.80;;;;;;;8.53;91.17;99945.19;6220308;23;20025;-83
2021/12/24 05:54:56;;;;;;;28.40;17.88;;;;;;;8.59;91.16;99954.97;6222301;23;20024;-82
2021/12/24 05:57:35;;;;;;;29.58;18.80;;;;;;;8.55;91.18;99945.84;6221770;23;20052;-81
2021/12/24 06:00:13;;;;;;;31.75;18.35;;;;;;;8.53;90.94;99955.59;6222225;23;20020;-82
2021/12/24 06:02:41;;;;;;;34.63;18.38;;;;;;;8.42;91.19;99933.28;6222562;23;20031;-81
2021/12/24 06:05:13;;;;;;;32.67;17.80;;;;;;;8.57;90.92;99965.56;6222943;23;20025;-82
2021/12/24 06:07:44;;;;;;;31.97;18.23;;;;;;;8.46;91.16;99952.84;6223888;23;20017;-80
2021/12/24 06:10:15;;;;;;;31.50;20.33;;;;;;;8.53;90.97;99955.59;6224661;23;20032;-81
2021/12/24 06:12:45;;;;;;;28.50;18.77;;;;;;;8.57;90.90;99964.75;6224095;23;20048;-81
2021/12/24 06:15:23;;;;;;;28.58;19.15;;;;;;;8.51;90.67;99955.75;6222466;23;20402;-82
2021/12/24 06:17:52;;;;;;;28.55;18.73;;;;;;;8.51;91.11;99960.16;6192893;23;20048;-77
2021/12/24 06:20:21;;;;;;;27.60;18.13;;;;;;;8.57;90.57;99965.56;6190913;23;20025;-79
2021/12/24 06:22:49;;;;;;;30.35;19.10;;;;;;;8.51;91.14;99960.16;6191572;23;20028;-78
2021/12/24 06:25:19;;;;;;;34.95;19.23;;;;;;;8.57;90.91;99954.31;6193008;23;20461;-80
2021/12/24 06:27:48;;;;;;;28.52;19.30;;;;;;;8.50;91.21;99969.00;6191064;23;20025;-80
2021/12/24 06:30:17;;;;;;;31.40;20.98;;;;;;;8.54;91.06;99967.66;6190136;23;20112;-81
2021/12/24 06:32:44;;;;;;;36.47;18.63;;;;;;;8.53;91.01;99955.59;6190264;23;20021;-81
2021/12/24 06:35:13;;;;;;;26.80;17.92;;;;;;;8.51;91.25;99960.16;6189811;23;20025;-80
2021/12/24 06:37:40;;;;;;;27.83;18.38;;;;;;;8.42;90.99;99953.31;6188541;23;20074;-81
2021/12/24 06:40:10;;;;;;;27.13;19.15;;;;;;;8.46;91.25;99962.47;6189020;23;20013;-81
2021/12/24 06:42:37;;;;;;;28.88;19.13;;;;;;;8.31;91.41;99941.34;6189519;23;20021;-81
2021/12/24 06:45:05;;;;;;;26.77;18.38;;;;;;;8.40;91.57;99939.63;6189289;23;20079;-80
2021/12/24 06:47:34;;;;;;;29.15;18.05;;;;;;;8.44;91.25;99943.53;6188545;23;20020;-81
2021/12/24 06:50:02;;;;;;;28.80;18.30;;;;;;;8.46;91.25;99950.25;6189535;23;20037;-80
2021/12/24 06:52:29;;;;;;;28.52;17.60;;;;;;;8.38;91.16;99941.56;6191488;23;20044;-80
2021/12/24 06:54:56;;;;;;;30.42;18.00;;;;;;;8.47;90.95;99938.84;6196941;23;20085;-80
2021/12/24 06:57:25;;;;;;;29.02;17.95;;;;;;;8.47;90.92;99943.22;6195329;23;20071;-82
2021/12/24 06:59:52;;;;;;;28.35;17.42;;;;;;;8.48;91.15;99950.09;6193577;23;20017;-81
2021/12/24 07:02:19;;;;;;;28.65;17.77;;;;;;;8.49;91.11;99955.13;6227706;23;20028;-80
2021/12/24 07:04:47;;;;;;;32.72;18.02;;;;;;;8.53;91.28;99961.63;6231523;23;20021;-80
2021/12/24 07:07:14;;;;;;;27.75;16.60;;;;;;;8.40;90.71;99961.28;6231796;23;20028;-79
2021/12/24 07:09:42;;;;;;;30.90;18.00;;;;;;;8.52;90.80;99964.41;6234346;23;20064;-81
2021/12/24 07:12:12;;;;;;;27.73;17.58;;;;;;;8.45;91.16;99968.66;6236173;23;20035;-80
2021/12/24 07:14:39;;;;;;;30.80;17.15;;;;;;;8.49;90.98;99981.22;6225181;23;20027;-80
2021/12/24 07:17:06;;;;;;;28.67;17.13;;;;;;;8.44;91.57;99965.22;6221308;23;20016;-80
2021/12/24 07:19:33;;;;;;;29.02;17.17;;;;;;;8.43;91.10;99970.59;6220677;23;20024;-80
2021/12/24 07:22:02;;;;;;;33.90;17.23;;;;;;;8.35;91.44;99967.94;6221097;23;20075;-80
2021/12/24 07:24:29;;;;;;;30.15;17.15;;;;;;;8.42;91.80;99985.41;6221149;23;20091;-81
2021/12/24 07:26:56;;;;;;;29.20;17.48;;;;;;;8.38;92.25;99989.31;6222160;23;20349;-81
2021/12/24 07:29:23;;;;;;;30.55;17.92;;;;;;;8.36;92.08;99972.19;6220443;23;20040;-79
2021/12/24 07:31:50;;;;;;;28.85;18.63;;;;;;;8.38;92.21;99983.28;6220945;23;20024;-81
2021/12/24 07:34:17;;;;;;;34.88;19.15;;;;;;;8.28;92.92;99984.19;6220803;23;20017;-81
2021/12/24 07:36:44;;;;;;;34.03;20.17;;;;;;;8.26;92.82;99973.09;6220894;23;20534;-81
2021/12/24 07:39:12;;;;;;;31.65;18.40;;;;;;;8.28;93.33;99992.00;6222139;23;20017;-81
2021/12/24 07:41:39;;;;;;;37.60;20.45;;;;;;;8.23;93.10;99983.84;6227494;23;20075;-80
2021/12/24 07:44:07;;;;;;;28.10;18.02;;;;;;;8.25;93.75;99986.28;6226362;23;20035;-81
2021/12/24 07:46:39;;;;;;;34.08;19.80;;;;;;;8.11;94.05;99973.84;6223652;23;20024;-80
2021/12/24 07:49:18;;;;;;;34.80;19.05;;;;;;;8.11;94.30;99977.25;6224833;23;20100;-80
2021/12/24 07:52:03;;;;;;;37.15;20.58;;;;;;;8.18;94.69;99991.31;6225833;23;20024;-80
2021/12/24 07:54:35;;;;;;;35.88;21.15;;;;;;;8.23;94.57;99983.84;6228706;23;20021;-81
2021/12/24 07:57:03;;;;;;;32.45;20.88;;;;;;;8.19;94.76;99984.31;6228414;23;20025;-81
2021/12/24 07:59:30;;;;;;;33.40;20.38;;;;;;;8.14;94.57;99979.56;6226510;23;20064;-80
2021/12/24 08:01:58;;;;;;;31.48;19.70;;;;;;;8.18;94.62;99988.69;6227843;23;20020;-81
2021/12/24 08:04:25;;;;;;;33.40;20.48;;;;;;;8.22;94.67;99984.81;6228533;23;20016;-81
2021/12/24 08:06:51;;;;;;;42.20;20.65;;;;;;;8.21;94.11;99993.59;6235349;23;20020;-82
2021/12/24 08:09:19;;;;;;;42.42;20.60;;;;;;;8.29;93.53;99977.19;6225048;23;20021;-80
2021/12/24 08:11:48;;;;;;;33.33;19.42;;;;;;;8.18;93.09;99970.47;6228981;23;20021;-81
2021/12/24 08:14:15;;;;;;;30.48;18.23;;;;;;;8.28;93.19;99994.63;6231380;23;20040;-79
2021/12/24 08:16:43;;;;;;;31.05;17.60;;;;;;;8.34;93.00;99997.59;6234064;23;20021;-79
2021/12/24 08:19:10;;;;;;;33.55;17.77;;;;;;;8.36;92.82;99999.09;6235330;23;20484;-81
2021/12/24 08:21:38;;;;;;;32.63;18.45;;;;;;;8.37;92.03;99992.06;6231775;23;20103;-81
2021/12/24 08:24:05;;;;;;;31.15;17.38;;;;;;;8.31;92.60;99983.88;6221745;23;20076;-81
2021/12/24 08:26:32;;;;;;;31.27;16.55;;;;;;;8.30;92.38;99977.03;6222810;23;20028;-79
2021/12/24 08:29:01;;;;;;;35.25;17.38;;;;;;;8.38;92.38;99989.31;6220414;23;20425;-80
2021/12/24 08:31:29;;;;;;;28.73;16.88;;;;;;;8.43;92.13;99991.44;6221954;23;20083;-81
2021/12/24 08:33:55;;;;;;;32.20;16.52;;;;;;;8.40;91.67;99986.56;6222582;23;20019;-80
2021/12/24 08:36:22;;;;;;;30.08;16.23;;;;;;;8.38;91.44;99971.06;6223115;23;20028;-83
2021/12/24 08:38:49;;;;;;;32.72;16.13;;;;;;;8.48;91.59;99983.97;6222895;23;20066;-81
2021/12/24 08:41:16;;;;;;;31.85;16.73;;;;;;;8.50;91.31;99969.81;6223697;23;20465;-82
2021/12/24 08:43:43;;;;;;;29.88;15.80;;;;;;;8.37;91.57;99961.59;6222797;23;20096;-81
2021/12/24 08:46:11;;;;;;;28.27;15.25;;;;;;;8.50;91.01;99969.00;6223211;23;20095;-82
2021/12/24 08:48:38;;;;;;;24.83;14.50;;;;;;;8.49;91.03;99976.00;6221669;23;20017;-82
2021/12/24 08:51:05;;;;;;;31.83;18.15;;;;;;;8.47;90.83;99972.72;6222128;23;20029;-83
2021/12/24 08:53:32;;;;;;;28.45;14.40;;;;;;;8.48;90.81;99968.34;6222787;23;20431;-82
2021/12/24 08:55:59;;;;;;;29.77;14.90;;;;;;;8.54;90.74;99968.47;6222512;23;20016;-81
2021/12/24 08:58:26;;;;;;;25.17;14.73;;;;;;;8.60;90.41;99967.03;6222614;23;20012;-82
2021/12/24 09:00:52;;;;;;;26.58;13.93;;;;;;;8.55;90.59;99962.28;6223474;23;20017;-80
2021/12/24 09:03:20;;;;;;;28.02;14.23;;;;;;;8.59;90.44;99949.75;6222199;23;20018;-81
2021/12/24 09:05:47;;;;;;;24.90;13.80;;;;;;;8.67;90.18;99943.75;6224023;23;20020;-82
2021/12/24 09:08:14;;;;;;;21.75;13.50;;;;;;;8.58;90.35;99935.91;6222730;23;20017;-82
2021/12/24 09:10:41;;;;;;;28.55;14.77;;;;;;;8.63;90.17;99943.25;6225674;23;20024;-82
2021/12/24 09:13:08;;;;;;;30.63;15.70;;;;;;;8.68;90.03;99946.19;6226364;23;20084;-82
2021/12/24 09:15:35;;;;;;;30.60;16.05;;;;;;;8.69;89.71;99947.00;6225321;23;20029;-82
2021/12/24 09:18:03;;;;;;;28.58;16.70;;;;;;;8.62;89.94;99944.22;6225705;23;20084;-82
2021/12/24 09:20:37;;;;;;;25.60;15.10;;;;;;;8.73;89.54;99950.94;6225399;23;20082;-82
2021/12/24 09:23:04;;;;;;;31.40;17.52;;;;;;;8.63;89.36;99941.47;6226280;23;20021;-83
2021/12/24 09:25:31;;;;;;;29.63;15.77;;;;;;;8.69;89.19;99955.66;6226669;23;20097;-82
2021/12/24 09:27:59;;;;;;;30.13;15.23;;;;;;;8.74;89.58;99944.75;6224628;23;20098;-82
2021/12/24 09:30:26;;;;;;;24.48;14.00;;;;;;;8.77;88.99;99934.81;6226273;23;20025;-82
2021/12/24 09:32:53;;;;;;;28.90;14.38;;;;;;;8.83;89.08;99923.72;6225866;23;20020;-81
2021/12/24 09:35:22;;;;;;;28.10;14.07;;;;;;;8.90;88.46;99929.13;6231498;23;20472;-81
2021/12/24 09:37:50;;;;;;;27.10;13.00;;;;;;;8.89;88.50;99925.69;6229215;23;20068;-81
2021/12/24 09:40:18;;;;;;;23.50;12.85;;;;;;;8.91;88.29;99918.53;6228040;23;20016;-81
2021/12/24 09:42:46;;;;;;;28.75;12.07;;;;;;;8.95;88.24;99930.25;6226754;23;20042;-80
2021/12/24 09:45:14;;;;;;;22.95;11.95;;;;;;;8.92;87.97;99938.41;6225754;23;20047;-81
2021/12/24 09:47:42;;;;;;;22.27;11.90;;;;;;;8.83;88.08;99931.56;6224417;23;20322;-82
2021/12/24 09:50:12;;;;;;;25.83;12.15;;;;;;;8.84;88.55;99932.38;6224909;23;20020;-81
2021/12/24 09:52:39;;;;;;;25.55;12.55;;;;;;;8.79;88.55;99922.41;6224688;23;20028;-80
2021/12/24 09:55:13;;;;;;;27.08;12.82;;;;;;;8.69;88.68;99921.75;6222580;23;20025;-82
2021/12/24 09:57:42;;;;;;;24.35;13.10;;;;;;;8.70;88.43;99912.94;6223734;23;20027;-82
2021/12/24 10:00:11;;;;;;;26.20;12.25;;;;;;;8.72;88.62;99918.00;6220811;23;20313;-81
2021/12/24 10:02:41;;;;;;;25.42;13.65;;;;;;;8.76;88.10;99906.28;6220773;23;20051;-79
2021/12/24 10:05:24;;;;;;;24.98;12.75;;;;;;;8.78;88.16;99920.78;6220937;23;20017;-79
2021/12/24 10:07:51;;;;;;;36.58;14.57;;;;;;;8.83;88.12;99925.50;6221206;23;20028;-80
2021/12/24 10:10:28;;;;;;;30.25;14.35;;;;;;;8.76;87.93;99920.13;6221677;23;20024;-79
2021/12/24 10:12:55;;;;;;;25.77;13.50;;;;;;;8.81;88.02;99922.25;6225778;23;20016;-78
2021/12/24 10:15:21;;;;;;;27.13;14.10;;;;;;;8.78;87.85;99920.78;6227296;23;20100;-79
2021/12/24 10:17:48;;;;;;;34.47;15.30;;;;;;;8.97;88.05;99928.31;6228197;23;20016;-80
2021/12/24 10:20:17;;;;;;;28.88;14.77;;;;;;;8.94;87.73;99928.63;6230788;23;20021;-82
2021/12/24 10:22:45;;;;;;;30.00;13.70;;;;;;;8.87;87.31;99908.56;6231030;23;20017;-81
2021/12/24 10:25:13;;;;;;;23.58;13.32;;;;;;;9.05;87.33;99926.66;6228131;23;20020;-80
2021/12/24 10:27:44;;;;;;;31.20;14.98;;;;;;;8.97;86.76;99923.09;6230474;23;20039;-80
2021/12/24 10:30:21;;;;;;;28.98;14.35;;;;;;;9.08;87.08;99903.66;6227539;23;20012;-79
2021/12/24 10:32:48;;;;;;;27.23;14.52;;;;;;;9.12;87.23;99920.63;6226079;23;20017;-79
2021/12/24 10:35:19;;;;;;;30.15;14.13;;;;;;;9.04;87.01;99904.13;6225583;23;20016;-79
2021/12/24 10:37:46;;;;;;;25.38;13.45;;;;;;;9.19;86.97;99915.56;6225473;23;20124;-80
2021/12/24 10:40:14;;;;;;;28.77;14.38;;;;;;;9.22;86.26;99904.78;6226526;23;20543;-80
2021/12/24 10:42:43;;;;;;;26.77;13.43;;;;;;;9.26;86.69;99911.31;6225809;23;20021;-80
2021/12/24 10:45:20;;;;;;;20.23;12.40;;;;;;;9.38;86.19;99906.56;6225734;23;20086;-80
2021/12/24 10:47:47;;;;;;;28.17;13.50;;;;;;;9.38;86.00;99910.00;6224681;23;20036;-80
2021/12/24 10:50:37;;;;;;;27.92;12.73;;;;;;;9.35;85.94;99902.50;6224810;23;20020;-81
2021/12/24 10:53:33;;;;;;;24.75;12.27;;;;;;;9.29;85.79;99890.91;6224299;23;20028;-79
2021/12/24 10:56:14;;;;;;;23.58;12.55;;;;;;;9.38;85.88;99909.19;6226404;23;20112;-80
2021/12/24 10:59:19;;;;;;;24.70;11.88;;;;;;;9.27;85.65;99890.28;6226396;23;20016;-81
2021/12/24 11:02:17;;;;;;;23.77;11.27;;;;;;;9.38;85.51;99901.34;6224134;23;20047;-80
2021/12/24 11:08:28;;;;;;;24.75;11.27;;;;;;;9.17;85.92;99891.41;6208008;23;20025;-79
2021/12/24 11:11:04;;;;;;;19.67;10.90;;;;;;;9.23;85.94;99903.81;6205070;23;20105;-79
2021/12/24 11:13:38;;;;;;;25.10;12.02;;;;;;;9.26;86.20;99906.91;6226815;23;20403;-79
2021/12/24 11:16:07;;;;;;;25.15;12.85;;;;;;;9.31;85.58;99907.22;6227106;23;20020;-80
2021/12/24 11:18:39;;;;;;;22.70;12.60;;;;;;;9.36;85.56;99900.72;6227530;23;20021;-81
2021/12/24 11:21:08;;;;;;;26.17;13.25;;;;;;;9.33;85.59;99901.84;6227646;23;20028;-81
2021/12/24 11:23:49;;;;;;;21.70;12.90;;;;;;;9.31;85.82;99899.41;6226420;23;20016;-80
2021/12/24 11:26:20;;;;;;;25.13;13.50;;;;;;;9.44;86.12;99913.75;6225575;23;20032;-81
2021/12/24 11:28:48;;;;;;;26.27;12.80;;;;;;;9.27;85.84;99907.72;6224868;23;20069;-79
2021/12/24 11:31:19;;;;;;;23.63;13.00;;;;;;;9.30;85.83;99904.78;6225320;23;20047;-79
2021/12/24 11:33:53;;;;;;;27.25;11.98;;;;;;;9.30;86.05;99908.22;6226381;23;20020;-79
2021/12/24 11:39:40;;;;;;;21.35;11.65;;;;;;;9.26;85.78;99896.47;6245764;22;20016;-78
2021/12/24 11:42:18;;;;;;;27.13;11.90;;;;;;;9.38;85.68;99910.00;6191113;23;20020;-79
2021/12/24 11:45:08;;;;;;;23.25;12.25;;;;;;;9.44;85.30;99905.91;6261945;23;20016;-78
2021/12/24 11:48:01;;;;;;;27.55;12.35;;;;;;;9.38;85.95;99909.19;6261629;23;20016;-79
2021/12/24 11:51:06;;;;;;;24.00;12.45;;;;;;;9.34;86.20;99881.78;6261979;23;20507;-82
2021/12/24 11:53:59;;;;;;;24.48;12.30;;;;;;;9.58;85.41;99890.34;6248675;23;20073;-79
2021/12/24 11:59:49;;;;;;;29.02;18.90;;;;;;;9.72;84.41;99864.53;6205612;23;20070;-76
2021/12/24 12:02:55;;;;;;;26.83;12.10;;;;;;;9.94;84.11;99882.88;6262478;23;20020;-77
2021/12/24 12:05:26;;;;;;;24.88;11.75;;;;;;;9.98;83.66;99881.53;6262674;23;20031;-77
2021/12/24 12:08:14;;;;;;;24.85;12.80;;;;;;;9.90;83.46;99865.13;6256958;23;20023;-80
2021/12/24 12:10:57;;;;;;;25.40;10.75;;;;;;;9.81;84.08;99855.69;6260323;23;20075;-78
2021/12/24 12:13:48;;;;;;;23.27;10.95;;;;;;;9.87;84.15;99857.63;6262704;23;20030;-77
2021/12/24 12:16:28;;;;;;;18.02;11.18;;;;;;;9.80;84.09;99856.66;6263373;23;20292;-78
2021/12/24 12:22:55;;;;;;;24.20;10.95;;;;;;;9.76;84.18;99858.78;6287386;22;20061;-82
2021/12/24 12:25:39;;;;;;;22.80;11.85;;;;;;;9.76;84.14;99865.81;6196672;23;20017;-81
2021/12/24 12:31:07;;;;;;;22.00;10.48;;;;;;;9.63;84.12;99867.16;6290141;22;20019;-82
2021/12/24 12:39:47;;;;;;;;;;;;;;;9.74;83.24;99867.78;6267944;22;20026;-81
2021/12/24 12:46:32;;;;;;;19.83;9.57;;;;;;;9.58;82.85;99874.69;6257450;23;20055;-83
2021/12/24 12:49:00;;;;;;;21.90;9.13;;;;;;;9.70;83.00;99882.97;6255378;23;20429;-84
2021/12/24 12:52:04;;;;;;;19.33;9.60;;;;;;;9.61;83.16;99869.13;6253048;23;20020;-83
2021/12/24 12:59:41;;;;;;;20.13;8.52;;;;;;;9.52;83.39;99836.19;6247603;23;20024;-82
2021/12/24 13:02:11;;;;;;;19.52;8.85;;;;;;;9.64;83.09;99863.56;6250784;23;20012;-83
2021/12/24 13:04:40;;;;;;;18.52;8.77;;;;;;;9.61;82.93;99853.44;6250623;23;20333;-81
2021/12/24 13:07:17;;;;;;;20.55;8.80;;;;;;;9.66;83.03;99855.56;6250992;23;20107;-82
2021/12/24 13:09:50;;;;;;;18.75;8.90;;;;;;;9.60;83.13;99854.44;6220690;23;20024;-81
2021/12/24 13:12:25;;;;;;;20.58;9.05;;;;;;;9.57;83.27;99857.38;6221268;23;20449;-82
2021/12/24 13:15:01;;;;;;;16.40;8.55;;;;;;;9.54;83.65;99856.91;6225875;23;20021;-82
2021/12/24 13:17:49;;;;;;;18.05;8.70;;;;;;;9.55;83.57;99868.97;6224088;23;20020;-82
2021/12/24 13:23:36;;;;;;;14.90;8.75;;;;;;;9.27;84.51;99839.84;6192291;23;20036;-83
2021/12/24 13:26:09;;;;;;;22.67;9.85;;;;;;;9.35;84.69;99847.66;6222262;23;20031;-84
2021/12/24 13:29:41;;;;;;;20.30;9.90;;;;;;;9.25;84.59;99852.25;6223898;23;20016;-83
2021/12/24 13:32:20;;;;;;;24.83;10.52;;;;;;;9.34;85.04;99877.38;6198094;23;20043;-83